createdAt,value
2023-04-30T00:00:03.095Z,9.10
2023-04-30T00:01:03.084Z,9.10
2023-04-30T00:02:02.777Z,9.10
2023-04-30T00:03:03.422Z,9.00
2023-04-30T00:04:03.551Z,9.00
2023-04-30T00:05:03.116Z,9.00
2023-04-30T00:06:02.771Z,8.90
2023-04-30T00:07:02.934Z,8.90
2023-04-30T00:08:03.489Z,8.90
2023-04-30T00:09:03.032Z,8.90
2023-04-30T00:10:02.957Z,8.90
2023-04-30T00:11:03.015Z,8.80
2023-04-30T00:12:03.836Z,8.80
2023-04-30T00:13:03.140Z,8.80
2023-04-30T00:14:03.091Z,8.80
2023-04-30T00:15:03.140Z,8.70
2023-04-30T00:16:02.847Z,8.70
2023-04-30T00:17:03.468Z,8.70
2023-04-30T00:18:03.382Z,8.70
2023-04-30T00:19:03.215Z,8.60
2023-04-30T00:20:03.172Z,8.60
2023-04-30T00:21:03.155Z,8.60
2023-04-30T00:22:03.159Z,8.60
2023-04-30T00:23:02.683Z,8.60
2023-04-30T00:24:02.636Z,8.60
2023-04-30T00:25:03.131Z,8.60
2023-04-30T00:26:03.178Z,8.50
2023-04-30T00:27:03.182Z,8.50
2023-04-30T00:28:02.633Z,8.50
2023-04-30T00:29:02.707Z,8.50
2023-04-30T00:30:03.093Z,8.40
2023-04-30T00:31:02.660Z,8.40
2023-04-30T00:32:02.756Z,8.40
2023-04-30T00:33:03.468Z,8.40
2023-04-30T00:34:03.266Z,8.40
2023-04-30T00:35:02.780Z,8.30
2023-04-30T00:36:03.378Z,8.30
2023-04-30T00:37:03.337Z,8.30
2023-04-30T00:38:03.313Z,8.20
2023-04-30T00:39:02.898Z,8.20
2023-04-30T00:40:03.459Z,8.20
2023-04-30T00:41:03.151Z,8.20
2023-04-30T00:42:03.184Z,8.10
2023-04-30T00:43:02.824Z,8.10
2023-04-30T00:44:03.314Z,8.10
2023-04-30T00:45:02.798Z,8.10
2023-04-30T00:46:03.011Z,8.10
2023-04-30T00:47:02.654Z,8.00
2023-04-30T00:48:03.341Z,8.00
2023-04-30T00:49:03.127Z,8.00
2023-04-30T00:50:02.717Z,8.00
2023-04-30T00:51:03.420Z,8.00
2023-04-30T00:52:02.941Z,7.90
2023-04-30T00:53:03.493Z,7.90
2023-04-30T00:54:03.192Z,7.90
2023-04-30T00:55:02.772Z,7.80
2023-04-30T00:56:03.378Z,7.80
2023-04-30T00:57:03.415Z,7.80
2023-04-30T00:58:03.040Z,7.80
2023-04-30T00:59:03.196Z,7.70
2023-04-30T01:00:02.755Z,7.70
2023-04-30T01:01:03.296Z,7.70
2023-04-30T01:02:03.560Z,7.70
2023-04-30T01:03:03.154Z,7.70
2023-04-30T01:04:03.032Z,7.70
2023-04-30T01:05:03.821Z,7.70
2023-04-30T01:06:03.236Z,7.70
2023-04-30T01:07:02.817Z,7.60
2023-04-30T01:08:03.444Z,7.60
2023-04-30T01:09:03.116Z,7.60
2023-04-30T01:10:02.632Z,7.60
2023-04-30T01:11:02.661Z,7.50
2023-04-30T01:12:03.127Z,7.50
2023-04-30T01:13:02.760Z,7.50
2023-04-30T01:14:03.285Z,7.50
2023-04-30T01:15:03.393Z,7.50
2023-04-30T01:16:02.960Z,7.50
2023-04-30T01:17:03.009Z,7.40
2023-04-30T01:18:02.667Z,7.40
2023-04-30T01:19:03.504Z,7.40
2023-04-30T01:20:03.382Z,7.40
2023-04-30T01:21:02.840Z,7.40
2023-04-30T01:22:03.500Z,7.30
2023-04-30T01:23:03.149Z,7.30
2023-04-30T01:24:02.620Z,7.30
2023-04-30T01:25:03.170Z,7.30
2023-04-30T01:26:02.903Z,7.20
2023-04-30T01:27:03.384Z,7.20
2023-04-30T01:28:02.926Z,7.20
2023-04-30T01:29:03.474Z,7.20
2023-04-30T01:30:03.590Z,7.20
2023-04-30T01:31:03.232Z,7.20
2023-04-30T01:32:02.804Z,7.20
2023-04-30T01:33:03.153Z,7.20
2023-04-30T01:34:03.126Z,7.20
2023-04-30T01:35:03.390Z,7.10
2023-04-30T01:36:03.643Z,7.10
2023-04-30T01:37:03.092Z,7.10
2023-04-30T01:38:02.776Z,7.10
2023-04-30T01:39:03.279Z,7.10
2023-04-30T01:40:02.873Z,7.10
2023-04-30T01:41:02.801Z,7.10
2023-04-30T01:42:03.457Z,7.10
2023-04-30T01:43:03.042Z,7.10
2023-04-30T01:44:03.184Z,7.10
2023-04-30T01:45:03.038Z,7.00
2023-04-30T01:46:02.780Z,7.00
2023-04-30T01:47:02.869Z,7.00
2023-04-30T01:48:03.592Z,7.00
2023-04-30T01:49:03.534Z,7.00
2023-04-30T01:50:02.931Z,7.00
2023-04-30T01:51:03.475Z,7.00
2023-04-30T01:52:03.613Z,7.00
2023-04-30T01:53:03.083Z,7.00
2023-04-30T01:54:03.172Z,7.00
2023-04-30T01:55:02.752Z,7.00
2023-04-30T01:56:03.348Z,7.00
2023-04-30T01:57:03.199Z,7.00
2023-04-30T01:58:03.223Z,6.90
2023-04-30T01:59:03.220Z,6.90
2023-04-30T02:00:03.267Z,6.90
2023-04-30T02:01:02.962Z,6.90
2023-04-30T02:02:02.715Z,6.90
2023-04-30T02:03:03.249Z,6.90
2023-04-30T02:04:02.879Z,6.90
2023-04-30T02:05:03.186Z,6.90
2023-04-30T02:06:03.246Z,6.80
2023-04-30T02:07:02.874Z,6.80
2023-04-30T02:08:03.424Z,6.80
2023-04-30T02:09:03.643Z,6.80
2023-04-30T02:10:03.621Z,6.80
2023-04-30T02:11:03.234Z,6.80
2023-04-30T02:12:03.158Z,6.80
2023-04-30T02:13:02.823Z,6.70
2023-04-30T02:14:03.376Z,6.70
2023-04-30T02:15:02.923Z,6.70
2023-04-30T02:16:03.591Z,6.70
2023-04-30T02:17:03.644Z,6.60
2023-04-30T02:18:03.006Z,6.60
2023-04-30T02:19:03.289Z,6.60
2023-04-30T02:20:02.813Z,6.60
2023-04-30T02:21:03.454Z,6.60
2023-04-30T02:22:03.505Z,6.60
2023-04-30T02:23:02.981Z,6.60
2023-04-30T02:24:03.637Z,6.50
2023-04-30T02:25:03.146Z,6.50
2023-04-30T02:26:03.173Z,6.50
2023-04-30T02:27:02.642Z,6.50
2023-04-30T02:28:02.613Z,6.50
2023-04-30T02:29:02.601Z,6.50
2023-04-30T02:30:02.728Z,6.40
2023-04-30T02:31:03.338Z,6.40
2023-04-30T02:32:03.028Z,6.40
2023-04-30T02:33:03.605Z,6.40
2023-04-30T02:34:03.552Z,6.40
2023-04-30T02:35:03.071Z,6.30
2023-04-30T02:36:03.020Z,6.30
2023-04-30T02:37:02.944Z,6.30
2023-04-30T02:38:03.486Z,6.30
2023-04-30T02:39:03.005Z,6.20
2023-04-30T02:40:03.441Z,6.30
2023-04-30T02:41:03.002Z,6.30
2023-04-30T02:42:02.960Z,6.20
2023-04-30T02:43:03.486Z,6.20
2023-04-30T02:44:03.115Z,6.20
2023-04-30T02:45:02.759Z,6.20
2023-04-30T02:46:02.871Z,6.20
2023-04-30T02:47:03.550Z,6.20
2023-04-30T02:48:03.217Z,6.20
2023-04-30T02:49:02.692Z,6.20
2023-04-30T02:50:03.629Z,6.20
2023-04-30T02:51:03.112Z,6.20
2023-04-30T02:52:03.576Z,6.20
2023-04-30T02:53:03.543Z,6.20
2023-04-30T02:54:03.385Z,6.20
2023-04-30T02:55:03.022Z,6.20
2023-04-30T02:56:03.463Z,6.20
2023-04-30T02:57:02.995Z,6.20
2023-04-30T02:58:03.530Z,6.20
2023-04-30T02:59:03.021Z,6.20
2023-04-30T03:00:03.612Z,6.20
2023-04-30T03:01:03.568Z,6.20
2023-04-30T03:02:03.100Z,6.20
2023-04-30T03:03:03.644Z,6.30
2023-04-30T03:04:02.640Z,6.30
2023-04-30T03:05:03.133Z,6.30
2023-04-30T03:06:02.772Z,6.30
2023-04-30T03:07:02.812Z,6.30
2023-04-30T03:08:02.875Z,6.30
2023-04-30T03:09:02.907Z,6.30
2023-04-30T03:10:02.807Z,6.30
2023-04-30T03:11:02.874Z,6.40
2023-04-30T03:12:03.411Z,6.40
2023-04-30T03:13:03.245Z,6.40
2023-04-30T03:14:02.775Z,6.40
2023-04-30T03:15:03.274Z,6.40
2023-04-30T03:16:02.851Z,6.40
2023-04-30T03:17:03.403Z,6.40
2023-04-30T03:18:03.275Z,6.40
2023-04-30T03:19:02.766Z,6.40
2023-04-30T03:20:03.372Z,6.40
2023-04-30T03:21:03.299Z,6.50
2023-04-30T03:22:02.861Z,6.50
2023-04-30T03:23:03.221Z,6.50
2023-04-30T03:24:03.213Z,6.50
2023-04-30T03:25:02.701Z,6.60
2023-04-30T03:26:03.399Z,6.60
2023-04-30T03:27:03.341Z,6.60
2023-04-30T03:28:02.769Z,6.60
2023-04-30T03:29:03.257Z,6.60
2023-04-30T03:30:02.863Z,6.60
2023-04-30T03:31:03.553Z,6.70
2023-04-30T03:32:03.256Z,6.70
2023-04-30T03:33:02.806Z,6.70
2023-04-30T03:34:03.423Z,6.70
2023-04-30T03:35:03.111Z,6.70
2023-04-30T03:36:02.623Z,6.70
2023-04-30T03:37:03.589Z,6.70
2023-04-30T03:38:03.493Z,6.80
2023-04-30T03:39:02.993Z,6.80
2023-04-30T03:40:03.484Z,6.80
2023-04-30T03:41:03.398Z,6.80
2023-04-30T03:42:03.290Z,6.80
2023-04-30T03:43:02.767Z,6.90
2023-04-30T03:44:03.327Z,6.90
2023-04-30T03:45:03.358Z,6.90
2023-04-30T03:46:03.010Z,6.90
2023-04-30T03:47:03.166Z,6.90
2023-04-30T03:48:02.803Z,7.00
2023-04-30T03:49:02.976Z,7.00
2023-04-30T03:50:02.651Z,7.00
2023-04-30T03:51:03.281Z,7.00
2023-04-30T03:52:02.734Z,7.00
2023-04-30T03:53:03.200Z,7.00
2023-04-30T03:54:02.669Z,7.00
2023-04-30T03:55:02.622Z,7.10
2023-04-30T03:56:03.149Z,7.10
2023-04-30T03:57:02.665Z,7.10
2023-04-30T03:58:03.359Z,7.10
2023-04-30T03:59:02.884Z,7.10
2023-04-30T04:00:03.434Z,7.10
2023-04-30T04:01:02.842Z,7.10
2023-04-30T04:02:03.410Z,7.20
2023-04-30T04:03:03.030Z,7.20
2023-04-30T04:04:03.208Z,7.20
2023-04-30T04:05:02.838Z,7.20
2023-04-30T04:06:03.284Z,7.20
2023-04-30T04:07:03.235Z,7.20
2023-04-30T04:08:03.020Z,7.20
2023-04-30T04:09:03.089Z,7.20
2023-04-30T04:10:02.717Z,7.30
2023-04-30T04:11:03.676Z,7.30
2023-04-30T04:12:03.074Z,7.30
2023-04-30T04:13:03.019Z,7.30
2023-04-30T04:14:03.026Z,7.30
2023-04-30T04:15:03.516Z,7.30
2023-04-30T04:16:03.634Z,7.30
2023-04-30T04:17:03.144Z,7.30
2023-04-30T04:18:03.716Z,7.30
2023-04-30T04:19:02.785Z,7.30
2023-04-30T04:20:02.727Z,7.30
2023-04-30T04:21:02.864Z,7.30
2023-04-30T04:22:02.882Z,7.30
2023-04-30T04:23:03.428Z,7.30
2023-04-30T04:24:03.468Z,7.30
2023-04-30T04:25:03.793Z,7.40
2023-04-30T04:26:02.858Z,7.40
2023-04-30T04:27:03.227Z,7.40
2023-04-30T04:28:02.798Z,7.40
2023-04-30T04:29:03.527Z,7.40
2023-04-30T04:30:02.999Z,7.40
2023-04-30T04:31:03.017Z,7.40
2023-04-30T04:32:03.677Z,7.50
2023-04-30T04:33:02.814Z,7.50
2023-04-30T04:34:02.910Z,7.50
2023-04-30T04:35:02.880Z,7.50
2023-04-30T04:36:03.110Z,7.50
2023-04-30T04:37:02.663Z,7.60
2023-04-30T04:38:02.708Z,7.60
2023-04-30T04:39:02.831Z,7.60
2023-04-30T04:40:03.582Z,7.70
2023-04-30T04:41:03.086Z,7.80
2023-04-30T04:42:03.577Z,7.80
2023-04-30T04:43:03.482Z,8.00
2023-04-30T04:44:03.118Z,8.10
2023-04-30T04:45:02.648Z,8.20
2023-04-30T04:46:03.598Z,8.40
2023-04-30T04:47:03.773Z,8.60
2023-04-30T04:48:03.110Z,8.70
2023-04-30T04:49:03.064Z,8.90
2023-04-30T04:50:03.589Z,9.10
2023-04-30T04:51:02.885Z,9.30
2023-04-30T04:52:02.912Z,9.40
2023-04-30T04:53:03.627Z,9.60
2023-04-30T04:54:03.488Z,9.80
2023-04-30T04:55:02.737Z,9.90
2023-04-30T04:56:03.445Z,10.10
2023-04-30T04:57:03.322Z,10.30
2023-04-30T04:58:03.242Z,10.40
2023-04-30T04:59:02.780Z,10.60
2023-04-30T05:00:02.621Z,10.70
2023-04-30T05:01:03.103Z,10.80
2023-04-30T05:02:03.015Z,11.00
2023-04-30T05:03:03.430Z,11.10
2023-04-30T05:04:03.099Z,11.20
2023-04-30T05:05:02.821Z,11.30
2023-04-30T05:06:02.845Z,11.40
2023-04-30T05:07:02.854Z,11.50
2023-04-30T05:08:03.382Z,11.70
2023-04-30T05:09:03.054Z,11.80
2023-04-30T05:10:02.627Z,11.90
2023-04-30T05:11:03.238Z,12.00
2023-04-30T05:12:02.779Z,12.10
2023-04-30T05:13:03.365Z,12.20
2023-04-30T05:14:03.077Z,12.30
2023-04-30T05:15:03.564Z,12.40
2023-04-30T05:16:03.529Z,12.50
2023-04-30T05:17:03.066Z,12.60
2023-04-30T05:18:03.210Z,12.70
2023-04-30T05:19:02.673Z,12.80
2023-04-30T05:20:03.211Z,12.90
2023-04-30T05:21:02.625Z,13.00
2023-04-30T05:22:02.751Z,13.10
2023-04-30T05:23:02.661Z,13.10
2023-04-30T05:24:02.650Z,13.20
2023-04-30T05:25:03.175Z,13.20
2023-04-30T05:26:02.793Z,13.30
2023-04-30T05:27:02.845Z,13.30
2023-04-30T05:28:03.295Z,13.30
2023-04-30T05:29:03.070Z,13.30
2023-04-30T05:30:03.516Z,13.40
2023-04-30T05:31:03.114Z,13.40
2023-04-30T05:32:03.711Z,13.50
2023-04-30T05:33:03.429Z,13.50
2023-04-30T05:34:03.072Z,13.50
2023-04-30T05:35:03.648Z,13.60
2023-04-30T05:36:03.097Z,13.70
2023-04-30T05:37:02.768Z,13.80
2023-04-30T05:38:02.875Z,13.80
2023-04-30T05:39:03.496Z,14.00
2023-04-30T05:40:03.014Z,14.10
2023-04-30T05:41:03.531Z,14.10
2023-04-30T05:42:03.518Z,14.20
2023-04-30T05:43:03.447Z,14.30
2023-04-30T05:44:03.004Z,14.30
2023-04-30T05:45:02.622Z,14.40
2023-04-30T05:46:03.320Z,14.40
2023-04-30T05:47:02.797Z,14.50
2023-04-30T05:48:03.415Z,14.50
2023-04-30T05:49:03.245Z,14.60
2023-04-30T05:50:02.960Z,14.70
2023-04-30T05:51:02.928Z,14.70
2023-04-30T05:52:03.505Z,14.80
2023-04-30T05:53:03.474Z,15.00
2023-04-30T05:54:03.092Z,15.00
2023-04-30T05:55:03.608Z,15.10
2023-04-30T05:56:02.689Z,15.20
2023-04-30T05:57:03.263Z,15.30
2023-04-30T05:58:02.650Z,15.30
2023-04-30T05:59:03.205Z,15.30
2023-04-30T06:00:03.351Z,15.40
2023-04-30T06:01:03.585Z,15.40
2023-04-30T06:02:03.385Z,15.40
2023-04-30T06:03:03.131Z,15.40
2023-04-30T06:04:02.871Z,15.30
2023-04-30T06:05:03.466Z,15.30
2023-04-30T06:06:03.216Z,15.30
2023-04-30T06:07:02.724Z,15.30
2023-04-30T06:08:03.404Z,15.30
2023-04-30T06:09:03.157Z,15.40
2023-04-30T06:10:02.798Z,15.40
2023-04-30T06:11:02.884Z,15.30
2023-04-30T06:12:03.370Z,15.20
2023-04-30T06:13:03.644Z,15.10
2023-04-30T06:14:02.630Z,15.00
2023-04-30T06:15:02.750Z,14.80
2023-04-30T06:16:04.059Z,14.70
2023-04-30T06:17:03.629Z,14.50
2023-04-30T06:18:02.734Z,14.30
2023-04-30T06:19:03.362Z,14.20
2023-04-30T06:20:02.693Z,14.20
2023-04-30T06:21:03.213Z,14.20
2023-04-30T06:22:02.786Z,14.10
2023-04-30T06:23:02.863Z,14.10
2023-04-30T06:24:02.941Z,14.00
2023-04-30T06:25:03.465Z,14.00
2023-04-30T06:26:02.997Z,13.90
2023-04-30T06:27:03.675Z,13.90
2023-04-30T06:28:03.100Z,13.90
2023-04-30T06:29:03.435Z,13.90
2023-04-30T06:30:03.257Z,14.00
2023-04-30T06:31:03.633Z,14.20
2023-04-30T06:32:03.259Z,14.20
2023-04-30T06:33:03.502Z,14.40
2023-04-30T06:34:03.104Z,14.40
2023-04-30T06:35:02.652Z,14.50
2023-04-30T06:36:02.744Z,14.60
2023-04-30T06:37:03.388Z,14.60
2023-04-30T06:38:02.983Z,14.70
2023-04-30T06:39:03.575Z,14.70
2023-04-30T06:40:03.278Z,14.70
2023-04-30T06:41:03.309Z,14.80
2023-04-30T06:42:02.904Z,14.80
2023-04-30T06:43:03.009Z,14.80
2023-04-30T06:44:03.554Z,14.90
2023-04-30T06:45:03.113Z,14.90
2023-04-30T06:46:03.139Z,15.00
2023-04-30T06:47:02.897Z,15.00
2023-04-30T06:48:03.690Z,15.00
2023-04-30T06:49:03.288Z,15.00
2023-04-30T06:50:03.437Z,15.00
2023-04-30T06:51:03.058Z,15.00
2023-04-30T06:52:02.888Z,15.00
2023-04-30T06:53:02.834Z,15.00
2023-04-30T06:54:02.945Z,15.00
2023-04-30T06:55:03.503Z,15.00
2023-04-30T06:56:03.395Z,14.90
2023-04-30T06:57:03.491Z,14.90
2023-04-30T06:58:03.448Z,14.80
2023-04-30T06:59:03.025Z,14.80
2023-04-30T07:00:02.895Z,14.80
2023-04-30T07:01:02.920Z,14.70
2023-04-30T07:02:03.451Z,14.70
2023-04-30T07:03:03.403Z,14.70
2023-04-30T07:04:03.614Z,14.70
2023-04-30T07:05:03.553Z,14.70
2023-04-30T07:06:02.997Z,14.70
2023-04-30T07:07:03.051Z,14.60
2023-04-30T07:08:02.678Z,14.60
2023-04-30T07:09:02.781Z,14.60
2023-04-30T07:10:02.787Z,14.60
2023-04-30T07:11:02.717Z,14.60
2023-04-30T07:12:03.273Z,14.60
2023-04-30T07:13:02.800Z,14.60
2023-04-30T07:14:03.223Z,14.50
2023-04-30T07:15:03.078Z,14.50
2023-04-30T07:16:03.116Z,14.50
2023-04-30T07:17:02.832Z,14.50
2023-04-30T07:18:03.522Z,14.50
2023-04-30T07:19:03.342Z,14.50
2023-04-30T07:20:02.935Z,14.50
2023-04-30T07:21:03.491Z,14.60
2023-04-30T07:22:03.069Z,14.60
2023-04-30T07:23:03.598Z,14.60
2023-04-30T07:24:03.632Z,14.60
2023-04-30T07:25:03.496Z,14.60
2023-04-30T07:26:03.098Z,14.60
2023-04-30T07:27:02.693Z,14.60
2023-04-30T07:28:03.193Z,14.60
2023-04-30T07:29:02.868Z,14.60
2023-04-30T07:30:03.461Z,14.60
2023-04-30T07:31:03.187Z,14.60
2023-04-30T07:32:02.937Z,14.60
2023-04-30T07:33:02.847Z,14.70
2023-04-30T07:34:02.837Z,14.70
2023-04-30T07:35:03.516Z,14.70
2023-04-30T07:36:03.459Z,14.70
2023-04-30T07:37:03.403Z,14.70
2023-04-30T07:38:03.598Z,14.70
2023-04-30T07:39:03.035Z,14.70
2023-04-30T07:40:02.695Z,14.70
2023-04-30T07:41:03.420Z,14.70
2023-04-30T07:42:03.113Z,14.80
2023-04-30T07:43:03.611Z,14.80
2023-04-30T07:44:03.250Z,14.90
2023-04-30T07:45:03.267Z,14.90
2023-04-30T07:46:03.011Z,14.90
2023-04-30T07:47:02.735Z,14.90
2023-04-30T07:48:03.420Z,14.80
2023-04-30T07:49:03.203Z,14.80
2023-04-30T07:50:03.322Z,14.80
2023-04-30T07:51:02.994Z,14.80
2023-04-30T07:52:03.519Z,14.90
2023-04-30T07:53:03.120Z,14.90
2023-04-30T07:54:02.658Z,14.90
2023-04-30T07:55:02.850Z,14.90
2023-04-30T07:56:03.339Z,15.00
2023-04-30T07:57:02.909Z,15.00
2023-04-30T07:58:03.397Z,15.00
2023-04-30T07:59:02.966Z,15.00
2023-04-30T08:00:02.682Z,15.10
2023-04-30T08:01:03.270Z,15.10
2023-04-30T08:02:02.985Z,15.20
2023-04-30T08:03:03.599Z,15.20
2023-04-30T08:04:03.530Z,15.20
2023-04-30T08:05:02.762Z,15.20
2023-04-30T08:06:02.720Z,15.20
2023-04-30T08:07:02.793Z,15.20
2023-04-30T08:08:03.398Z,15.20
2023-04-30T08:09:03.172Z,15.20
2023-04-30T08:10:03.253Z,15.20
2023-04-30T08:11:03.344Z,15.20
2023-04-30T08:12:02.870Z,15.10
2023-04-30T08:13:02.884Z,15.20
2023-04-30T08:14:03.396Z,15.20
2023-04-30T08:15:03.499Z,15.10
2023-04-30T08:16:03.465Z,15.10
2023-04-30T08:17:03.703Z,15.10
2023-04-30T08:18:03.424Z,15.00
2023-04-30T08:19:03.603Z,15.00
2023-04-30T08:20:03.143Z,15.00
2023-04-30T08:21:03.235Z,14.90
2023-04-30T08:22:02.637Z,14.90
2023-04-30T08:23:03.196Z,14.90
2023-04-30T08:24:03.092Z,14.90
2023-04-30T08:25:03.620Z,14.90
2023-04-30T08:26:03.601Z,14.80
2023-04-30T08:27:03.499Z,14.80
2023-04-30T08:28:03.299Z,14.70
2023-04-30T08:29:03.374Z,14.70
2023-04-30T08:30:02.881Z,14.70
2023-04-30T08:31:03.048Z,14.60
2023-04-30T08:32:02.946Z,14.60
2023-04-30T08:33:03.295Z,14.60
2023-04-30T08:34:02.881Z,14.60
2023-04-30T08:35:03.514Z,14.70
2023-04-30T08:36:03.141Z,14.60
2023-04-30T08:37:03.156Z,14.60
2023-04-30T08:38:02.683Z,14.60
2023-04-30T08:39:03.197Z,14.70
2023-04-30T08:40:02.777Z,14.70
2023-04-30T08:41:03.420Z,14.70
2023-04-30T08:42:02.913Z,14.80
2023-04-30T08:43:02.881Z,14.80
2023-04-30T08:44:02.947Z,14.80
2023-04-30T08:45:03.596Z,14.80
2023-04-30T08:46:03.441Z,14.80
2023-04-30T08:47:03.013Z,14.80
2023-04-30T08:48:03.653Z,14.80
2023-04-30T08:49:02.786Z,14.80
2023-04-30T08:50:02.876Z,14.80
2023-04-30T08:51:03.285Z,14.80
2023-04-30T08:52:02.751Z,14.80
2023-04-30T08:53:02.802Z,14.80
2023-04-30T08:54:02.922Z,14.70
2023-04-30T08:55:03.519Z,14.70
2023-04-30T08:56:03.548Z,14.70
2023-04-30T08:57:03.209Z,14.70
2023-04-30T08:58:02.785Z,14.70
2023-04-30T08:59:03.228Z,14.60
2023-04-30T09:00:03.061Z,14.60
2023-04-30T09:01:03.046Z,14.70
2023-04-30T09:02:02.769Z,14.70
2023-04-30T09:03:03.506Z,14.70
2023-04-30T09:04:03.444Z,14.70
2023-04-30T09:05:03.118Z,14.70
2023-04-30T09:06:02.789Z,14.80
2023-04-30T09:07:04.475Z,14.80
2023-04-30T09:08:04.494Z,14.80
2023-04-30T09:09:02.722Z,14.80
2023-04-30T09:10:03.294Z,14.80
2023-04-30T09:11:03.163Z,14.80
2023-04-30T09:12:02.878Z,14.80
2023-04-30T09:13:02.788Z,14.90
2023-04-30T09:14:03.267Z,14.90
2023-04-30T09:15:03.239Z,14.90
2023-04-30T09:16:03.141Z,14.90
2023-04-30T09:17:03.493Z,14.90
2023-04-30T09:18:02.954Z,14.90
2023-04-30T09:19:03.451Z,14.90
2023-04-30T09:20:03.045Z,14.90
2023-04-30T09:21:03.080Z,14.90
2023-04-30T09:22:02.725Z,14.80
2023-04-30T09:23:02.741Z,14.80
2023-04-30T09:24:03.401Z,14.90
2023-04-30T09:25:02.999Z,14.90
2023-04-30T09:26:03.585Z,14.90
2023-04-30T09:27:03.141Z,15.00
2023-04-30T09:28:03.250Z,15.00
2023-04-30T09:29:02.835Z,15.00
2023-04-30T09:30:03.583Z,15.10
2023-04-30T09:31:03.270Z,15.10
2023-04-30T09:32:03.036Z,15.10
2023-04-30T09:33:02.918Z,15.10
2023-04-30T09:34:03.393Z,15.20
2023-04-30T09:35:02.988Z,15.20
2023-04-30T09:36:02.934Z,15.20
2023-04-30T09:37:03.506Z,15.20
2023-04-30T09:38:03.505Z,15.20
2023-04-30T09:39:03.049Z,15.20
2023-04-30T09:40:02.609Z,15.30
2023-04-30T09:41:03.205Z,15.30
2023-04-30T09:42:02.865Z,15.30
2023-04-30T09:43:03.399Z,15.30
2023-04-30T09:44:02.940Z,15.20
2023-04-30T09:45:03.485Z,15.20
2023-04-30T09:46:03.023Z,15.20
2023-04-30T09:47:02.968Z,15.20
2023-04-30T09:48:13.065Z,15.20
2023-04-30T09:49:02.901Z,15.20
2023-04-30T09:50:03.275Z,15.20
2023-04-30T09:51:02.848Z,15.20
2023-04-30T09:52:03.497Z,15.20
2023-04-30T09:53:03.324Z,15.10
2023-04-30T09:54:02.988Z,15.20
2023-04-30T09:55:02.970Z,15.20
2023-04-30T09:56:03.430Z,15.20
2023-04-30T09:57:03.002Z,15.20
2023-04-30T09:58:02.665Z,15.20
2023-04-30T09:59:03.160Z,15.30
2023-04-30T10:00:03.172Z,15.30
2023-04-30T10:01:02.903Z,15.30
2023-04-30T10:02:02.901Z,15.40
2023-04-30T10:03:03.402Z,15.40
2023-04-30T10:04:03.594Z,15.40
2023-04-30T10:05:03.118Z,15.40
2023-04-30T10:06:02.780Z,15.40
2023-04-30T10:07:03.026Z,15.40
2023-04-30T10:08:02.881Z,15.40
2023-04-30T10:09:02.779Z,15.40
2023-04-30T10:10:03.271Z,15.40
2023-04-30T10:11:03.187Z,15.30
2023-04-30T10:12:03.179Z,15.30
2023-04-30T10:13:03.170Z,15.30
2023-04-30T10:14:03.236Z,15.30
2023-04-30T10:15:02.894Z,15.30
2023-04-30T10:16:03.360Z,15.30
2023-04-30T10:17:03.426Z,15.30
2023-04-30T10:18:02.844Z,15.30
2023-04-30T10:19:03.648Z,15.30
2023-04-30T10:20:03.509Z,15.30
2023-04-30T10:21:03.154Z,15.40
2023-04-30T10:22:03.161Z,15.40
2023-04-30T10:23:02.718Z,15.40
2023-04-30T10:24:03.204Z,15.40
2023-04-30T10:25:03.224Z,15.40
2023-04-30T10:26:02.819Z,15.40
2023-04-30T10:27:02.695Z,15.40
2023-04-30T10:28:04.766Z,15.50
2023-04-30T10:29:03.006Z,15.50
2023-04-30T10:30:02.891Z,15.50
2023-04-30T10:31:03.512Z,15.50
2023-04-30T10:32:03.153Z,15.60
2023-04-30T10:33:02.706Z,15.60
2023-04-30T10:34:03.237Z,15.60
2023-04-30T10:35:02.814Z,15.70
2023-04-30T10:36:02.756Z,15.70
2023-04-30T10:37:02.748Z,15.70
2023-04-30T10:38:03.215Z,15.70
2023-04-30T10:39:02.677Z,15.70
2023-04-30T10:40:03.630Z,15.80
2023-04-30T10:41:03.175Z,15.80
2023-04-30T10:42:03.319Z,15.80
2023-04-30T10:43:03.253Z,15.80
2023-04-30T10:44:03.202Z,15.80
2023-04-30T10:45:02.882Z,15.80
2023-04-30T10:46:03.616Z,15.80
2023-04-30T10:47:03.556Z,15.80
2023-04-30T10:48:03.158Z,15.80
2023-04-30T10:49:02.858Z,15.80
2023-04-30T10:50:02.812Z,15.80
2023-04-30T10:51:03.334Z,15.80
2023-04-30T10:52:02.835Z,15.80
2023-04-30T10:53:03.268Z,15.80
2023-04-30T10:54:02.943Z,15.80
2023-04-30T10:55:03.477Z,15.90
2023-04-30T10:56:03.416Z,15.90
2023-04-30T10:57:02.962Z,16.00
2023-04-30T10:58:03.472Z,16.00
2023-04-30T10:59:03.546Z,16.00
2023-04-30T11:00:03.084Z,16.00
2023-04-30T11:01:03.522Z,16.00
2023-04-30T11:02:03.618Z,16.00
2023-04-30T11:03:03.402Z,16.00
2023-04-30T11:04:02.960Z,16.00
2023-04-30T11:05:03.320Z,15.90
2023-04-30T11:06:03.562Z,15.90
2023-04-30T11:07:03.262Z,15.90
2023-04-30T11:08:02.788Z,15.90
2023-04-30T11:09:03.577Z,15.80
2023-04-30T11:10:03.062Z,15.70
2023-04-30T11:11:03.567Z,15.70
2023-04-30T11:12:03.088Z,15.70
2023-04-30T11:13:02.626Z,15.70
2023-04-30T11:14:03.170Z,15.60
2023-04-30T11:15:03.283Z,15.60
2023-04-30T11:16:03.538Z,15.60
2023-04-30T11:17:03.223Z,15.60
2023-04-30T11:18:02.685Z,15.60
2023-04-30T11:19:02.822Z,15.60
2023-04-30T11:20:02.845Z,15.70
2023-04-30T11:21:02.787Z,15.60
2023-04-30T11:22:03.369Z,15.70
2023-04-30T11:23:03.150Z,15.70
2023-04-30T11:24:02.664Z,15.70
2023-04-30T11:25:03.602Z,15.70
2023-04-30T11:26:03.123Z,15.70
2023-04-30T11:27:02.950Z,15.70
2023-04-30T11:28:03.414Z,15.70
2023-04-30T11:29:03.089Z,15.70
2023-04-30T11:30:02.631Z,15.80
2023-04-30T11:31:02.723Z,15.80
2023-04-30T11:32:03.379Z,15.80
2023-04-30T11:33:02.917Z,15.80
2023-04-30T11:34:02.866Z,15.80
2023-04-30T11:35:03.604Z,15.80
2023-04-30T11:36:03.266Z,15.80
2023-04-30T11:37:03.293Z,15.80
2023-04-30T11:38:02.802Z,15.80
2023-04-30T11:39:02.795Z,15.80
2023-04-30T11:40:03.643Z,15.80
2023-04-30T11:41:03.335Z,15.80
2023-04-30T11:42:03.491Z,15.80
2023-04-30T11:43:02.895Z,15.80
2023-04-30T11:44:03.575Z,15.80
2023-04-30T11:45:03.081Z,15.80
2023-04-30T11:46:03.086Z,15.90
2023-04-30T11:47:03.673Z,15.90
2023-04-30T11:48:03.615Z,15.90
2023-04-30T11:49:03.383Z,15.90
2023-04-30T11:50:03.201Z,15.90
2023-04-30T11:51:02.618Z,15.80
2023-04-30T11:52:02.667Z,15.80
2023-04-30T11:53:03.285Z,15.80
2023-04-30T11:54:03.211Z,15.80
2023-04-30T11:55:02.667Z,15.80
2023-04-30T11:56:03.602Z,15.80
2023-04-30T11:57:03.291Z,15.80
2023-04-30T11:58:02.608Z,15.80
2023-04-30T11:59:02.767Z,15.80
2023-04-30T12:00:02.725Z,15.80
2023-04-30T12:01:03.468Z,15.80
2023-04-30T12:02:03.618Z,15.80
2023-04-30T12:03:03.753Z,15.80
2023-04-30T12:04:03.135Z,15.80
2023-04-30T12:05:02.646Z,15.80
2023-04-30T12:06:02.708Z,15.80
2023-04-30T12:07:03.309Z,15.80
2023-04-30T12:08:03.424Z,15.80
2023-04-30T12:09:02.882Z,15.80
2023-04-30T12:10:03.469Z,15.80
2023-04-30T12:11:03.356Z,15.80
2023-04-30T12:12:03.086Z,15.80
2023-04-30T12:13:03.595Z,15.80
2023-04-30T12:14:03.001Z,15.80
2023-04-30T12:15:02.955Z,15.90
2023-04-30T12:16:02.993Z,15.90
2023-04-30T12:17:03.732Z,15.90
2023-04-30T12:18:03.419Z,15.90
2023-04-30T12:19:02.937Z,15.90
2023-04-30T12:20:03.587Z,15.80
2023-04-30T12:21:03.478Z,15.80
2023-04-30T12:22:03.001Z,15.80
2023-04-30T12:23:03.042Z,15.80
2023-04-30T12:24:03.500Z,15.80
2023-04-30T12:25:02.821Z,15.80
2023-04-30T12:26:03.410Z,15.80
2023-04-30T12:27:03.188Z,15.80
2023-04-30T12:28:02.817Z,15.80
2023-04-30T12:29:02.641Z,15.80
2023-04-30T12:30:03.556Z,15.80
2023-04-30T12:31:03.064Z,15.80
2023-04-30T12:32:03.193Z,15.80
2023-04-30T12:33:02.796Z,15.80
2023-04-30T12:34:03.438Z,15.80
2023-04-30T12:35:03.088Z,15.80
2023-04-30T12:36:03.528Z,15.80
2023-04-30T12:37:03.365Z,15.80
2023-04-30T12:38:02.882Z,15.80
2023-04-30T12:39:02.864Z,15.80
2023-04-30T12:40:03.300Z,15.80
2023-04-30T12:41:03.157Z,15.90
2023-04-30T12:42:03.382Z,15.90
2023-04-30T12:43:03.256Z,15.90
2023-04-30T12:44:02.747Z,15.90
2023-04-30T12:45:03.314Z,15.90
2023-04-30T12:46:02.898Z,16.00
2023-04-30T12:47:02.863Z,16.00
2023-04-30T12:48:02.869Z,16.00
2023-04-30T12:49:03.133Z,16.00
2023-04-30T12:50:03.195Z,16.00
2023-04-30T12:51:02.813Z,16.00
2023-04-30T12:52:03.453Z,15.90
2023-04-30T12:53:03.082Z,15.90
2023-04-30T12:54:02.749Z,15.80
2023-04-30T12:55:02.774Z,15.80
2023-04-30T12:56:03.239Z,15.80
2023-04-30T12:57:02.863Z,15.80
2023-04-30T12:58:03.433Z,15.80
2023-04-30T12:59:02.874Z,15.80
2023-04-30T13:00:03.326Z,15.80
2023-04-30T13:01:02.888Z,15.80
2023-04-30T13:02:03.040Z,15.80